OINR  Ramsar  Airport

Iran

Add Bookmark
ICAO OINR
IATA RZR
Type Airport
Status Operational
Latitude
36° 54' 35" N
36.909901
Longitude
50° 40' 46" E
50.679600
Local (GMT +3.5 ) UTC
Sep 26, 2016 05:24 am Sep 26, 2016 01:54
Sunrise-Sunset Local UTC
Begin Civil Twilight 05:31 am 02:01
Sunrise 05:57 am 02:27
Sunset 05:59 pm 14:29
End Civil Twilight 06:24 pm 14:54
VFR
VFR
MVFR
MVFR
IFR
IFR
LIFR
LIFR
Unknown
Unavailable

Current Weather

METAR Observed VFR
OINR 260100Z VRB02KT 9999 FEW022CB SCT027 BKN080 19/17 Q1014 Mon, Sep 26, 2016 @ 01:00 UTC
(54 Minutes ago)
Visual Flight Rules
Wind Visibility Clouds Conditions
Varies at 2 knots (4 kph) 10 km or more
  • Few at 2,200 ft AGL
  • Scattered at 2,700 ft AGL
  • Broken at 8,000 ft AGL
  • No significant weather
Temperatures Readings Precipitation
Current Temp
19°C
66°F
Dewpoint
17°C
63°F
Humidity 88%
Altimeter 29.94" Hg
Sea Level Pressure 1,014 mb
None Recorded

Additional weather within a 92.6km radius of OINR

Map ICAO Location
OINN 75km E/SE (111°)
VFR
VFR
MVFR
MVFR
IFR
IFR
LIFR
LIFR
Unknown
Unavailable
-
-

CheckWX.com is intended as a tool to help pilots better visualize weather data. It is not intended as a substitute for an official weather briefing obtained from a Flight Service Station. CheckWX.com does not meet the FAA requirements for an official pre-flight weather briefing. Therefore, it's important that pilots still call and obtain an official FSS pre-flight weather briefing.

© 2007-2016 CheckWX.com
01:54:16 UTC